Terminal Aerodrome Forecast
Issued by NWS

Home | Current Version | Previous Version | Graphics & Text | Print | Product List | Glossary On
Versions: 1 2 3 4 5 6 7 8 9 10 11 12 13 14 15 16
864
FTUS43 KGRB 170746 AAA
TAFAUW
TAF AMD
KAUW 170746Z 1708/1806 20007KT P6SM SCT040 BKN070
      TEMPO 1708/1711 4SM -TSRA BR BKN014CB
     FM171100 27006KT P6SM -SHRA OVC025
     FM171300 28007KT P6SM SCT025 BKN035
     FM171800 29011KT P6SM SCT040
     FM180100 30003KT P6SM SKC=

USA.gov is the U.S. government's official web portal to all federal, state and local government web resources and services.